createdAt,value
2019-04-23T00:00:37.994Z,9.40
2019-04-23T00:02:51.163Z,10.03
2019-04-23T00:05:31.798Z,9.08
2019-04-23T00:10:25.649Z,9.38
2019-04-23T00:15:21.471Z,8.23
2019-04-23T00:17:55.876Z,8.73
2019-04-23T00:20:21.985Z,8.75
2019-04-23T00:23:11.144Z,8.68
2019-04-23T00:28:31.378Z,7.75
2019-04-23T00:30:56.841Z,7.95
2019-04-23T00:33:25.571Z,8.03
2019-04-23T00:35:56.579Z,7.87
2019-04-23T00:40:59.538Z,8.10
2019-04-23T00:43:30.193Z,8.03
2019-04-23T00:45:55.083Z,8.05
2019-04-23T00:48:35.279Z,7.83
2019-04-23T00:50:54.328Z,7.60
2019-04-23T00:53:37.093Z,7.10
2019-04-23T01:00:57.816Z,7.83
2019-04-23T01:03:25.243Z,7.80
2019-04-23T01:05:58.837Z,7.80
2019-04-23T01:08:31.773Z,7.83
2019-04-23T01:11:16.733Z,7.50
2019-04-23T01:13:39.477Z,7.42
2019-04-23T01:16:05.670Z,6.92
2019-04-23T01:18:48.256Z,7.60
2019-04-23T01:20:54.225Z,7.60
2019-04-23T01:23:40.470Z,8.10
2019-04-23T01:26:26.492Z,7.60
2019-04-23T01:29:01.398Z,7.78
2019-04-23T01:31:33.265Z,7.40
2019-04-23T01:34:05.573Z,7.72
2019-04-23T01:36:32.990Z,7.83
2019-04-23T01:39:00.272Z,8.05
2019-04-23T01:41:33.963Z,7.55
2019-04-23T01:44:01.647Z,7.72
2019-04-23T01:46:35.752Z,7.80
2019-04-23T01:49:07.434Z,7.53
2019-04-23T01:51:39.976Z,7.62
2019-04-23T01:54:04.885Z,8.25
2019-04-23T01:56:35.192Z,8.00
2019-04-23T01:59:07.367Z,8.08
2019-04-23T02:01:38.721Z,8.80
2019-04-23T02:04:10.098Z,8.15
2019-04-23T02:06:31.531Z,8.53
2019-04-23T02:09:06.562Z,8.75
2019-04-23T02:11:31.749Z,8.75
2019-04-23T02:14:09.533Z,8.30
2019-04-23T02:16:35.924Z,8.73
2019-04-23T02:19:10.933Z,8.43
2019-04-23T02:21:45.210Z,8.43
2019-04-23T02:24:14.432Z,8.55
2019-04-23T02:26:43.555Z,10.05
2019-04-23T02:29:32.569Z,8.73
2019-04-23T02:34:33.429Z,9.20
2019-04-23T02:36:57.490Z,9.08
2019-04-23T02:39:26.526Z,11.68
2019-04-23T02:42:17.057Z,12.23
2019-04-23T02:47:02.618Z,12.73
2019-04-23T02:49:47.712Z,12.95
2019-04-23T02:56:52.940Z,12.60
2019-04-23T02:59:28.556Z,11.28
2019-04-23T03:02:05.844Z,10.03
2019-04-23T03:04:33.938Z,9.90
2019-04-23T03:07:14.068Z,9.53
2019-04-23T03:09:36.679Z,9.23
2019-04-23T03:12:02.638Z,10.55
2019-04-23T03:14:27.174Z,12.10
2019-04-23T03:16:56.696Z,11.05
2019-04-23T03:19:34.071Z,10.30
2019-04-23T03:22:01.503Z,10.95
2019-04-23T03:29:49.035Z,10.00
2019-04-23T03:40:00.508Z,10.85
2019-04-23T03:42:17.736Z,11.28
2019-04-23T03:44:47.840Z,10.78
2019-04-23T03:47:18.671Z,10.90
2019-04-23T03:49:48.664Z,11.83
2019-04-23T03:52:25.355Z,11.43
2019-04-23T03:57:20.301Z,11.27
2019-04-23T04:00:02.576Z,12.13
2019-04-23T04:02:31.000Z,11.57
2019-04-23T04:04:39.534Z,11.78
2019-04-23T04:07:22.060Z,12.20
2019-04-23T04:12:21.058Z,11.57
2019-04-23T04:17:13.802Z,14.07
2019-04-23T04:22:44.138Z,14.07
2019-04-23T04:27:22.068Z,12.93
2019-04-23T04:29:54.938Z,12.15
2019-04-23T04:32:12.524Z,14.03
2019-04-23T04:35:12.484Z,12.58
2019-04-23T04:37:35.216Z,11.48
2019-04-23T04:39:57.137Z,12.15
2019-04-23T04:42:21.198Z,11.55
2019-04-23T04:44:50.291Z,15.03
2019-04-23T04:47:25.833Z,11.63
2019-04-23T04:49:59.769Z,12.88
2019-04-23T04:52:43.936Z,12.65
2019-04-23T04:54:53.971Z,10.78
2019-04-23T05:00:06.774Z,12.18
2019-04-23T05:07:35.789Z,14.83
2019-04-23T05:09:57.618Z,11.75
2019-04-23T05:14:59.155Z,11.85
2019-04-23T05:17:32.886Z,10.50
2019-04-23T05:19:58.943Z,10.93
2019-04-23T05:22:36.305Z,10.95
2019-04-23T05:24:51.042Z,10.68
2019-04-23T05:27:27.353Z,14.45
2019-04-23T05:30:04.079Z,18.60
2019-04-23T05:32:26.528Z,12.70
2019-04-23T05:34:56.123Z,11.85
2019-04-23T05:37:37.147Z,9.73
2019-04-23T05:39:54.529Z,11.38
2019-04-23T05:42:30.069Z,10.45
2019-04-23T05:44:56.625Z,9.18
2019-04-23T05:47:29.190Z,9.88
2019-04-23T05:50:02.062Z,9.73
2019-04-23T05:52:31.318Z,9.30
2019-04-23T05:57:26.911Z,9.00
2019-04-23T05:59:57.241Z,9.28
2019-04-23T06:02:37.301Z,9.38
2019-04-23T06:05:00.041Z,9.68
2019-04-23T06:07:49.383Z,9.68
2019-04-23T06:10:42.159Z,10.03
2019-04-23T06:13:14.588Z,9.83
2019-04-23T06:15:37.024Z,9.45
2019-04-23T06:18:16.903Z,9.40
2019-04-23T06:20:49.289Z,8.95
2019-04-23T06:23:13.344Z,8.70
2019-04-23T06:28:14.600Z,9.45
2019-04-23T06:30:48.982Z,9.45
2019-04-23T06:33:16.339Z,9.68
2019-04-23T06:35:44.836Z,9.35
2019-04-23T06:40:41.949Z,9.00
2019-04-23T06:43:22.644Z,9.20
2019-04-23T06:46:09.984Z,9.58
2019-04-23T06:48:45.212Z,9.58
2019-04-23T06:51:15.993Z,8.38
2019-04-23T06:53:35.942Z,8.50
2019-04-23T06:56:13.629Z,8.60
2019-04-23T06:58:37.331Z,8.13
2019-04-23T07:01:05.299Z,8.30
2019-04-23T07:03:43.350Z,8.30
2019-04-23T07:16:12.827Z,7.97
2019-04-23T07:19:02.714Z,7.90
2019-04-23T07:23:45.421Z,7.47
2019-04-23T07:26:28.857Z,7.05
2019-04-23T07:28:50.294Z,7.70
2019-04-23T07:33:52.508Z,7.62
2019-04-23T07:36:21.102Z,7.12
2019-04-23T07:41:55.562Z,6.92
2019-04-23T07:44:32.572Z,7.58
2019-04-23T07:47:11.553Z,7.30
2019-04-23T07:49:34.207Z,7.17
2019-04-23T07:52:06.649Z,7.65
2019-04-23T07:54:28.981Z,7.12
2019-04-23T07:57:03.034Z,6.50
2019-04-23T07:59:35.304Z,7.33
2019-04-23T08:02:12.837Z,6.92
2019-04-23T08:04:35.511Z,6.67
2019-04-23T08:07:01.197Z,6.72
2019-04-23T08:09:35.876Z,7.75
2019-04-23T08:12:02.882Z,7.17
2019-04-23T08:14:34.383Z,7.50
2019-04-23T08:16:58.167Z,6.97
2019-04-23T08:19:32.320Z,6.65
2019-04-23T08:22:09.203Z,6.97
2019-04-23T08:24:41.956Z,8.33
2019-04-23T08:27:02.762Z,6.80
2019-04-23T08:29:30.428Z,7.03
2019-04-23T08:32:11.804Z,7.95
2019-04-23T08:37:09.262Z,8.30
2019-04-23T08:42:27.083Z,7.67
2019-04-23T08:44:44.990Z,7.30
2019-04-23T08:47:26.220Z,7.40
2019-04-23T08:49:47.029Z,7.40
2019-04-23T08:52:17.827Z,7.12
2019-04-23T09:04:53.798Z,8.05
2019-04-23T09:07:21.706Z,6.67
2019-04-23T09:09:50.902Z,7.53
2019-04-23T09:12:24.211Z,8.10
2019-04-23T09:14:51.918Z,7.17
2019-04-23T09:17:17.232Z,7.47
2019-04-23T09:20:05.056Z,7.35
2019-04-23T09:22:34.586Z,7.58
2019-04-23T09:27:22.070Z,7.72
2019-04-23T09:35:12.917Z,7.53
2019-04-23T09:40:54.870Z,8.05
2019-04-23T09:43:13.774Z,6.87
2019-04-23T09:45:48.682Z,8.20
2019-04-23T09:48:11.961Z,7.62
2019-04-23T09:55:43.641Z,8.53
2019-04-23T09:58:11.966Z,8.25
2019-04-23T10:00:48.707Z,8.38
2019-04-23T10:03:10.675Z,7.80
2019-04-23T10:05:33.661Z,8.60
2019-04-23T10:08:04.141Z,8.33
2019-04-23T10:10:23.019Z,8.50
2019-04-23T10:13:11.573Z,8.75
2019-04-23T10:15:42.981Z,9.33
2019-04-23T10:18:11.916Z,9.65
2019-04-23T10:20:40.514Z,9.00
2019-04-23T10:23:10.261Z,9.03
2019-04-23T10:25:40.304Z,8.40
2019-04-23T10:28:11.362Z,9.50
2019-04-23T10:30:40.905Z,8.70
2019-04-23T10:33:09.768Z,9.08
2019-04-23T10:35:46.081Z,8.70
2019-04-23T10:38:13.626Z,8.80
2019-04-23T10:40:42.785Z,8.80
2019-04-23T10:43:09.292Z,9.30
2019-04-23T10:46:07.912Z,9.18
2019-04-23T10:49:00.754Z,8.53
2019-04-23T10:51:35.370Z,8.08
2019-04-23T10:54:02.680Z,9.40
2019-04-23T10:56:39.738Z,8.83
2019-04-23T10:58:54.458Z,8.28
2019-04-23T11:01:31.929Z,8.93
2019-04-23T11:04:10.706Z,8.78
2019-04-23T11:09:11.418Z,8.85
2019-04-23T11:11:42.276Z,9.45
2019-04-23T11:14:13.289Z,8.25
2019-04-23T11:16:49.529Z,9.20
2019-04-23T11:19:19.251Z,8.88
2019-04-23T11:21:58.492Z,10.15
2019-04-23T11:24:23.658Z,8.50
2019-04-23T11:29:16.291Z,8.78
2019-04-23T11:31:48.060Z,8.70
2019-04-23T11:34:18.127Z,12.13
2019-04-23T11:39:18.476Z,9.33
2019-04-23T11:41:51.270Z,9.95
2019-04-23T11:54:10.578Z,9.15
2019-04-23T11:57:10.816Z,10.00
2019-04-23T11:59:20.914Z,9.73
2019-04-23T12:04:26.650Z,9.33
2019-04-23T12:07:17.284Z,9.30
2019-04-23T12:12:23.800Z,9.63
2019-04-23T12:14:51.040Z,8.88
2019-04-23T12:17:49.120Z,9.68
2019-04-23T12:27:31.379Z,8.90
2019-04-23T12:32:56.611Z,9.88
2019-04-23T12:35:12.945Z,11.05
2019-04-23T12:37:44.915Z,10.08
2019-04-23T12:40:51.298Z,9.45
2019-04-23T12:43:12.420Z,9.50
2019-04-23T12:48:15.722Z,10.00
2019-04-23T12:53:10.296Z,9.80
2019-04-23T13:00:44.451Z,9.98
2019-04-23T13:03:09.769Z,9.45
2019-04-23T13:05:32.772Z,10.65
2019-04-23T13:08:16.121Z,10.13
2019-04-23T13:10:40.016Z,9.73
2019-04-23T13:15:40.887Z,10.40
2019-04-23T13:18:15.630Z,10.23
2019-04-23T13:20:37.125Z,9.88
2019-04-23T13:23:30.789Z,10.23
2019-04-23T13:28:35.485Z,10.20
2019-04-23T13:31:08.536Z,11.12
2019-04-23T13:33:40.939Z,10.13
2019-04-23T13:36:11.326Z,10.68
2019-04-23T13:38:36.273Z,10.10
2019-04-23T13:41:11.606Z,10.38
2019-04-23T13:46:17.904Z,10.82
2019-04-23T13:48:34.501Z,10.18
2019-04-23T13:51:09.336Z,10.28
2019-04-23T13:56:15.214Z,10.18
2019-04-23T13:58:50.352Z,10.75
2019-04-23T14:03:40.811Z,10.72
2019-04-23T14:06:18.392Z,11.12
2019-04-23T14:11:19.419Z,12.13
2019-04-23T14:13:49.595Z,11.63
2019-04-23T14:16:22.768Z,12.25
2019-04-23T14:18:56.529Z,13.25
2019-04-23T14:24:03.353Z,12.40
2019-04-23T14:26:23.270Z,12.35
2019-04-23T14:28:41.910Z,12.55
2019-04-23T14:31:10.689Z,12.03
2019-04-23T14:36:14.124Z,12.40
2019-04-23T14:38:59.554Z,12.82
2019-04-23T14:43:50.917Z,12.05
2019-04-23T14:51:25.082Z,11.55
2019-04-23T14:53:46.357Z,11.68
2019-04-23T14:56:17.159Z,10.85
2019-04-23T14:58:58.048Z,10.82
2019-04-23T15:03:46.606Z,10.15
2019-04-23T15:06:31.584Z,10.88
2019-04-23T15:11:29.600Z,11.75
2019-04-23T15:19:20.833Z,10.82
2019-04-23T15:24:15.946Z,10.65
2019-04-23T15:28:45.526Z,10.85
2019-04-23T15:31:40.190Z,10.82
2019-04-23T15:37:10.615Z,11.65
2019-04-23T15:42:08.086Z,10.93
2019-04-23T15:44:45.325Z,11.18
2019-04-23T15:49:28.721Z,10.88
2019-04-23T15:51:56.856Z,10.88
2019-04-23T15:54:42.819Z,10.65
2019-04-23T15:57:02.517Z,10.65
2019-04-23T15:59:36.493Z,10.63
2019-04-23T16:01:41.168Z,10.10
2019-04-23T16:04:01.371Z,10.53
2019-04-23T16:06:32.638Z,10.25
2019-04-23T16:09:17.763Z,9.58
2019-04-23T16:11:53.068Z,9.95
2019-04-23T16:17:04.455Z,9.65
2019-04-23T16:22:04.548Z,8.70
2019-04-23T16:24:26.651Z,9.10
2019-04-23T16:29:46.381Z,9.73
2019-04-23T16:32:08.364Z,8.55
2019-04-23T16:34:33.254Z,9.20
2019-04-23T16:37:10.478Z,9.90
2019-04-23T16:39:33.730Z,10.23
2019-04-23T16:42:11.546Z,9.30
2019-04-23T16:47:13.068Z,9.45
2019-04-23T16:50:01.886Z,9.93
2019-04-23T16:52:08.157Z,8.28
2019-04-23T16:54:50.967Z,7.78
2019-04-23T16:59:51.834Z,7.90
2019-04-23T17:02:16.093Z,7.05
2019-04-23T17:07:07.099Z,7.65
2019-04-23T17:12:16.712Z,7.12
2019-04-23T17:14:41.414Z,7.05
2019-04-23T17:17:07.820Z,6.72
2019-04-23T17:19:47.250Z,6.10
2019-04-23T17:22:09.909Z,6.28
2019-04-23T17:24:40.336Z,5.83
2019-04-23T17:27:20.048Z,5.58
2019-04-23T17:29:41.973Z,6.33
2019-04-23T17:32:28.107Z,5.78
2019-04-23T17:35:09.595Z,6.65
2019-04-23T17:37:32.857Z,6.28
2019-04-23T17:42:43.924Z,7.10
2019-04-23T17:45:31.053Z,6.70
2019-04-23T17:47:59.354Z,6.85
2019-04-23T17:52:56.146Z,7.00
2019-04-23T17:55:21.735Z,7.37
2019-04-23T17:58:01.681Z,7.25
2019-04-23T18:03:01.194Z,7.05
2019-04-23T18:05:16.763Z,7.17
2019-04-23T18:10:30.312Z,7.00
2019-04-23T18:12:56.664Z,7.30
2019-04-23T18:15:17.680Z,5.90
2019-04-23T18:18:02.314Z,6.30
2019-04-23T18:23:08.785Z,6.10
2019-04-23T18:25:32.384Z,6.42
2019-04-23T18:35:46.954Z,6.47
2019-04-23T18:38:29.514Z,5.58
2019-04-23T18:46:03.942Z,4.58
2019-04-23T18:51:07.777Z,4.95
2019-04-23T18:53:40.672Z,5.08
2019-04-23T18:57:00.173Z,5.28
2019-04-23T18:58:44.711Z,5.42
2019-04-23T19:01:05.612Z,4.17
2019-04-23T19:03:49.729Z,5.35
2019-04-23T19:06:22.936Z,4.70
2019-04-23T19:09:03.154Z,3.80
2019-04-23T19:11:49.233Z,4.00
2019-04-23T19:14:30.727Z,4.00
2019-04-23T19:16:50.813Z,3.90
2019-04-23T19:19:05.186Z,3.65
2019-04-23T19:21:57.533Z,3.40
2019-04-23T19:24:28.754Z,3.58
2019-04-23T19:29:30.654Z,3.70
2019-04-23T19:42:06.736Z,3.50
2019-04-23T19:44:37.488Z,3.47
2019-04-23T19:49:35.700Z,4.08
2019-04-23T19:51:59.414Z,3.45
2019-04-23T19:59:39.571Z,3.83
2019-04-23T20:02:10.523Z,3.92
2019-04-23T20:04:39.248Z,4.20
2019-04-23T20:07:12.966Z,3.83
2019-04-23T20:12:03.208Z,4.28
2019-04-23T20:14:31.800Z,4.40
2019-04-23T20:19:40.949Z,5.00
2019-04-23T20:24:41.671Z,4.60
2019-04-23T20:27:13.964Z,4.83
2019-04-23T20:29:58.430Z,5.65
2019-04-23T20:37:05.533Z,5.78
2019-04-23T20:39:49.180Z,6.55
2019-04-23T20:47:15.997Z,7.17
2019-04-23T20:49:45.601Z,5.65
2019-04-23T20:54:57.018Z,5.67
2019-04-23T20:57:43.113Z,5.95
2019-04-23T21:00:01.882Z,5.78
2019-04-23T21:02:52.418Z,5.55
2019-04-23T21:05:10.081Z,6.85
2019-04-23T21:07:48.938Z,6.37
2019-04-23T21:10:20.244Z,6.37
2019-04-23T21:12:58.119Z,6.47
2019-04-23T21:17:54.646Z,6.30
2019-04-23T21:22:39.568Z,7.03
2019-04-23T21:25:27.892Z,7.28
2019-04-23T21:27:55.374Z,7.05
2019-04-23T21:30:10.956Z,7.72
2019-04-23T21:37:58.893Z,6.97
2019-04-23T21:40:57.150Z,7.85
2019-04-23T21:45:40.851Z,8.15
2019-04-23T21:48:08.320Z,8.28
2019-04-23T21:50:43.310Z,8.38
2019-04-23T21:53:11.659Z,9.68
2019-04-23T21:55:47.201Z,8.88
2019-04-23T21:58:30.068Z,9.35
2019-04-23T22:00:46.232Z,9.40
2019-04-23T22:03:17.926Z,10.13
2019-04-23T22:05:46.059Z,9.33
2019-04-23T22:10:47.944Z,10.70
2019-04-23T22:13:33.592Z,10.18
2019-04-23T22:15:53.440Z,10.53
2019-04-23T22:18:06.617Z,10.88
2019-04-23T22:20:47.167Z,11.30
2019-04-23T22:23:14.469Z,10.85
2019-04-23T22:25:48.858Z,11.15
2019-04-23T22:28:12.865Z,11.75
2019-04-23T22:30:49.953Z,12.37
2019-04-23T22:35:47.941Z,11.95
2019-04-23T22:38:13.050Z,11.97
2019-04-23T22:40:53.532Z,11.75
2019-04-23T22:45:52.434Z,12.80
2019-04-23T22:48:13.855Z,13.03
2019-04-23T22:50:57.459Z,12.68
2019-04-23T22:53:28.450Z,13.70
2019-04-23T22:55:57.385Z,12.80
2019-04-23T22:58:11.453Z,13.68
2019-04-23T23:00:58.529Z,12.37
2019-04-23T23:03:29.425Z,14.05
2019-04-23T23:08:57.465Z,13.65
2019-04-23T23:10:56.654Z,14.23
2019-04-23T23:13:28.478Z,14.45
2019-04-23T23:16:01.522Z,15.25
2019-04-23T23:18:25.592Z,15.10
2019-04-23T23:21:03.832Z,15.10
2019-04-23T23:23:36.541Z,14.55
2019-04-23T23:26:02.306Z,15.75
2019-04-23T23:28:35.044Z,14.80
2019-04-23T23:33:36.569Z,14.38
2019-04-23T23:36:06.983Z,15.18
2019-04-23T23:38:33.307Z,15.98
2019-04-23T23:46:21.968Z,15.03
2019-04-23T23:48:28.073Z,15.25
2019-04-23T23:53:45.837Z,15.03
2019-04-23T23:56:11.201Z,15.60
2019-04-23T23:58:52.341Z,15.85
